Time;durP1;ratioP1;P1;durP2;ratioP2;P2;SDS_P1;SDS_P2;PMS_P1;PMS_P2;Temp;Humidity;BMP_temperature;BMP_pressure;BME280_temperature;BME280_humidity;BME280_pressure;Samples;Min_cycle;Max_cycle;Signal;HPM_P1;HPM_P2
2023/07/18 00:00:27;;;;;;;9.95;7.40;;;;;;;21.54;100.00;93365.94;5087337;28;20052;-73
2023/07/18 00:02:54;;;;;;;11.88;7.32;;;;;;;21.48;100.00;93373.03;5083030;28;20399;-74
2023/07/18 00:05:22;;;;;;;9.75;7.13;;;;;;;21.55;100.00;93364.88;5083451;28;20044;-74
2023/07/18 00:07:49;;;;;;;12.43;7.72;;;;;;;21.33;100.00;93340.75;5084248;28;20040;-74
2023/07/18 00:10:19;;;;;;;16.45;7.75;;;;;;;21.49;100.00;93358.91;5087427;28;20048;-74
2023/07/18 00:12:46;;;;;;;8.63;7.43;;;;;;;21.43;100.00;93358.16;5081585;28;20043;-74
2023/07/18 00:15:13;;;;;;;10.80;7.90;;;;;;;21.39;100.00;93359.00;5083354;28;20048;-73
2023/07/18 00:17:42;;;;;;;10.95;7.75;;;;;;;21.47;100.00;93353.97;5086892;28;20775;-74
2023/07/18 00:20:12;;;;;;;9.82;7.45;;;;;;;21.45;100.00;93357.91;5084020;28;20429;-74
2023/07/18 00:22:40;;;;;;;9.20;7.10;;;;;;;21.42;100.00;93355.84;5086119;28;20474;-74
2023/07/18 00:25:09;;;;;;;9.30;6.80;;;;;;;21.32;100.00;93349.63;5087339;28;20048;-74
2023/07/18 00:27:38;;;;;;;9.90;7.05;;;;;;;21.37;100.00;93346.19;5082649;28;20052;-74
2023/07/18 00:30:06;;;;;;;8.50;6.70;;;;;;;21.30;100.00;93354.34;5086514;28;20052;-73
2023/07/18 00:32:33;;;;;;;9.32;7.45;;;;;;;21.22;100.00;93363.56;5084533;28;20101;-73
2023/07/18 00:35:01;;;;;;;9.02;6.95;;;;;;;21.27;100.00;93348.88;5084944;28;20121;-74
2023/07/18 00:37:28;;;;;;;11.23;7.78;;;;;;;21.17;100.00;93347.13;5086680;28;20048;-74
2023/07/18 00:39:55;;;;;;;9.18;7.28;;;;;;;21.20;100.00;93349.22;5086342;28;20063;-75
2023/07/18 00:42:21;;;;;;;9.85;7.57;;;;;;;21.24;100.00;93339.75;5080552;28;20065;-74
2023/07/18 00:44:50;;;;;;;10.93;7.10;;;;;;;21.21;100.00;93348.91;5083909;28;20563;-74
2023/07/18 00:47:18;;;;;;;10.48;6.97;;;;;;;21.11;100.00;93340.41;5086438;28;20550;-74
2023/07/18 00:49:45;;;;;;;8.82;6.95;;;;;;;21.00;100.00;93319.56;5086202;28;20044;-74
2023/07/18 00:52:14;;;;;;;8.25;6.63;;;;;;;21.02;100.00;93329.75;5082930;28;20048;-74
2023/07/18 00:54:41;;;;;;;10.23;6.88;;;;;;;20.99;100.00;93331.06;5086265;28;20112;-74
2023/07/18 00:57:08;;;;;;;11.52;7.50;;;;;;;21.00;100.00;93322.19;5083356;28;20097;-74
2023/07/18 00:59:36;;;;;;;10.85;7.45;;;;;;;21.01;100.00;93328.19;5085049;28;20036;-74
2023/07/18 01:02:04;;;;;;;10.55;7.60;;;;;;;21.00;100.00;93316.16;5085532;28;20040;-74
2023/07/18 01:04:30;;;;;;;9.80;6.35;;;;;;;20.94;100.00;93321.44;5086234;28;20083;-74
2023/07/18 01:06:57;;;;;;;11.93;7.03;;;;;;;20.76;100.00;93301.94;5083842;28;20547;-74
2023/07/18 01:09:25;;;;;;;9.13;7.55;;;;;;;20.82;100.00;93320.97;5086285;28;20089;-74
2023/07/18 01:11:52;;;;;;;8.80;6.63;;;;;;;20.85;100.00;93327.47;5084169;28;20117;-74
2023/07/18 01:14:21;;;;;;;10.93;7.47;;;;;;;20.76;100.00;93322.03;5083012;28;20044;-74
2023/07/18 01:16:48;;;;;;;12.00;7.80;;;;;;;20.76;100.00;93317.63;5082075;28;20633;-75
2023/07/18 01:19:15;;;;;;;10.10;7.18;;;;;;;20.74;100.00;93324.91;5085328;28;20048;-74
2023/07/18 01:21:43;;;;;;;9.43;6.60;;;;;;;20.66;100.00;93318.47;5085626;28;20452;-74
2023/07/18 01:24:10;;;;;;;9.30;8.07;;;;;;;20.60;100.00;93319.50;5086285;28;20044;-74
2023/07/18 01:26:36;;;;;;;9.40;7.45;;;;;;;20.61;100.00;93317.69;5083943;28;20041;-74
2023/07/18 01:29:04;;;;;;;11.30;7.60;;;;;;;20.57;100.00;93320.06;5082387;28;20477;-74
2023/07/18 01:31:32;;;;;;;10.98;7.72;;;;;;;20.54;100.00;93312.75;5080543;28;20105;-74
2023/07/18 01:33:58;;;;;;;9.90;7.40;;;;;;;20.50;100.00;93319.59;5083726;28;20155;-74
2023/07/18 01:36:28;;;;;;;10.60;7.78;;;;;;;20.46;100.00;93321.16;5086396;28;20052;-74
2023/07/18 01:38:57;;;;;;;10.38;7.60;;;;;;;20.45;100.00;93320.38;5085014;28;20524;-74
2023/07/18 01:41:24;;;;;;;9.27;7.35;;;;;;;20.46;100.00;93321.94;5090090;28;20413;-74
2023/07/18 01:43:50;;;;;;;16.95;7.93;;;;;;;20.45;100.00;93320.38;5087694;28;20097;-74
2023/07/18 01:46:17;;;;;;;10.25;7.78;;;;;;;20.51;100.00;93318.53;5086624;28;20044;-75
2023/07/18 01:48:44;;;;;;;12.23;7.53;;;;;;;20.47;100.00;93328.72;5090406;28;20060;-75
2023/07/18 01:51:10;;;;;;;8.98;7.03;;;;;;;20.48;100.00;93325.06;5090153;28;20044;-74
2023/07/18 01:53:37;;;;;;;11.05;7.45;;;;;;;20.41;100.00;93314.91;5087826;28;20130;-75
2023/07/18 01:56:05;;;;;;;7.97;6.63;;;;;;;20.39;100.00;93322.25;5087136;28;20090;-75
2023/07/18 01:58:32;;;;;;;13.05;7.07;;;;;;;20.41;100.00;93319.38;5080936;28;20466;-75
2023/07/18 02:01:03;;;;;;;10.15;7.20;;;;;;;20.38;100.00;93325.91;5089721;28;20048;-75
2023/07/18 02:03:29;;;;;;;9.77;7.72;;;;;;;20.39;100.00;93339.72;5081939;28;20564;-75
2023/07/18 02:05:56;;;;;;;7.63;6.57;;;;;;;20.35;100.00;93333.47;5087258;28;20086;-75
2023/07/18 02:08:23;;;;;;;11.15;7.85;;;;;;;20.28;100.00;93336.38;5086403;28;20044;-75
2023/07/18 02:10:50;;;;;;;9.27;6.55;;;;;;;20.21;100.00;93331.44;5084964;28;20555;-75
2023/07/18 02:13:18;;;;;;;11.27;7.40;;;;;;;20.09;100.00;93318.69;5088822;28;20047;-75
2023/07/18 02:15:45;;;;;;;10.43;7.45;;;;;;;20.14;100.00;93328.34;5089497;28;20052;-75
2023/07/18 02:18:11;;;;;;;14.02;7.63;;;;;;;20.07;100.00;93320.81;5088064;28;20498;-75
2023/07/18 02:20:38;;;;;;;9.57;6.95;;;;;;;20.14;100.00;93330.97;5083980;28;20110;-75
2023/07/18 02:23:05;;;;;;;9.05;6.78;;;;;;;20.16;100.00;93323.63;5088167;28;20093;-75
2023/07/18 02:25:31;;;;;;;8.27;6.97;;;;;;;20.15;100.00;93328.06;5089097;28;20494;-75
2023/07/18 02:27:58;;;;;;;11.25;7.45;;;;;;;20.15;100.00;93335.13;5082530;28;20048;-75
2023/07/18 02:30:26;;;;;;;10.63;7.30;;;;;;;20.14;100.00;93334.31;5086481;28;20040;-74
2023/07/18 02:32:53;;;;;;;10.18;7.07;;;;;;;20.14;100.00;93339.53;5089473;28;20606;-74
2023/07/18 02:35:21;;;;;;;9.80;7.68;;;;;;;20.07;100.00;93331.22;5088647;28;20105;-74
2023/07/18 02:37:48;;;;;;;9.65;7.40;;;;;;;20.14;100.00;93338.78;5084772;28;20131;-74
2023/07/18 02:40:17;;;;;;;10.98;6.90;;;;;;;20.06;100.00;93340.09;5088940;28;20052;-75
2023/07/18 02:42:43;;;;;;;10.70;7.15;;;;;;;20.00;100.00;93344.53;5088367;28;20521;-74
2023/07/18 02:45:11;;;;;;;8.65;7.05;;;;;;;19.98;100.00;93340.63;5086103;28;20535;-74
2023/07/18 02:47:39;;;;;;;9.07;6.50;;;;;;;20.02;100.00;93349.50;5082141;28;20048;-74
2023/07/18 02:50:07;;;;;;;10.48;7.57;;;;;;;19.98;100.00;93349.25;5086385;28;20044;-75
2023/07/18 02:52:34;;;;;;;10.13;7.03;;;;;;;19.91;100.00;93346.13;5088662;28;20048;-74
2023/07/18 02:55:03;;;;;;;9.93;6.75;;;;;;;19.82;100.00;93332.84;5085086;28;20052;-75
2023/07/18 02:57:29;;;;;;;17.33;8.00;;;;;;;19.89;100.00;93348.19;5081336;28;20055;-74
2023/07/18 02:59:57;;;;;;;10.25;7.43;;;;;;;19.88;100.00;93355.25;5086734;28;20048;-74
2023/07/18 03:02:23;;;;;;;11.18;7.20;;;;;;;19.72;100.00;93338.06;5088364;28;20849;-74
2023/07/18 03:04:51;;;;;;;9.82;7.68;;;;;;;19.83;100.00;93344.03;5088185;28;20048;-74
2023/07/18 03:07:18;;;;;;;12.38;7.28;;;;;;;19.75;100.00;93343.53;5081679;28;20784;-74
2023/07/18 03:09:45;;;;;;;14.77;7.93;;;;;;;19.79;100.00;93351.59;5084023;28;20052;-74
2023/07/18 03:12:12;;;;;;;9.55;7.35;;;;;;;19.75;100.00;93351.34;5087362;28;20044;-74
2023/07/18 03:14:39;;;;;;;11.80;7.78;;;;;;;19.75;100.00;93345.34;5088176;28;20040;-74
2023/07/18 03:17:06;;;;;;;9.30;7.00;;;;;;;19.77;100.00;93351.88;5086527;28;20127;-74
2023/07/18 03:19:33;;;;;;;12.60;8.25;;;;;;;19.81;100.00;93340.91;5086024;28;20509;-74
2023/07/18 03:22:01;;;;;;;10.57;7.25;;;;;;;19.79;100.00;93346.38;5086487;28;20048;-74
2023/07/18 03:24:28;;;;;;;10.27;7.85;;;;;;;19.71;100.00;93329.47;5080710;28;20065;-74
2023/07/18 03:26:55;;;;;;;10.68;7.65;;;;;;;19.63;100.00;93312.53;5087278;28;20056;-74
2023/07/18 03:29:22;;;;;;;13.73;7.53;;;;;;;19.84;100.00;93351.59;5084387;28;20044;-74
2023/07/18 03:31:49;;;;;;;11.98;8.00;;;;;;;19.81;100.00;93348.75;5085726;28;20051;-74
2023/07/18 03:34:16;;;;;;;13.23;8.82;;;;;;;19.76;100.00;93346.91;5084811;28;20047;-74
2023/07/18 03:36:43;;;;;;;12.20;7.95;;;;;;;19.83;100.00;93352.66;5087829;28;20093;-74
2023/07/18 03:39:13;;;;;;;15.00;8.13;;;;;;;19.83;100.00;93344.81;5085064;28;20120;-74
2023/07/18 03:41:40;;;;;;;12.60;7.80;;;;;;;19.82;100.00;93343.28;5087174;28;20416;-74
2023/07/18 03:44:06;;;;;;;13.20;7.53;;;;;;;19.85;100.00;93344.53;5106340;28;20047;-74
2023/07/18 03:46:33;;;;;;;13.18;7.63;;;;;;;19.87;100.00;93350.28;5099930;28;20044;-74
2023/07/18 03:49:00;;;;;;;13.00;7.80;;;;;;;19.93;100.00;93351.03;5088651;28;20044;-74
2023/07/18 03:51:27;;;;;;;9.70;7.60;;;;;;;19.94;100.00;93357.84;5092668;28;20625;-75
2023/07/18 03:53:53;;;;;;;12.63;8.25;;;;;;;19.97;100.00;93363.34;5088109;28;20569;-74
2023/07/18 03:56:21;;;;;;;10.70;7.53;;;;;;;19.97;100.00;93362.53;5087404;28;20145;-74
2023/07/18 03:58:51;;;;;;;9.07;6.97;;;;;;;20.03;100.00;93364.09;5090411;28;20056;-74
2023/07/18 04:01:18;;;;;;;10.43;7.35;;;;;;;20.01;100.00;93374.00;5092768;28;20076;-74
2023/07/18 04:03:45;;;;;;;14.60;9.15;;;;;;;19.94;100.00;93360.44;5092471;28;20052;-75
2023/07/18 04:06:11;;;;;;;16.60;9.00;;;;;;;19.99;100.00;93365.66;5095561;28;20054;-74
2023/07/18 04:08:38;;;;;;;13.32;8.85;;;;;;;20.12;100.00;93372.94;5088800;28;20220;-74
2023/07/18 04:11:05;;;;;;;13.30;8.15;;;;;;;20.13;100.00;93368.50;5089797;28;20055;-74
2023/07/18 04:13:33;;;;;;;12.43;9.00;;;;;;;20.20;100.00;93373.44;5091306;28;20052;-74
2023/07/18 04:16:00;;;;;;;12.15;8.57;;;;;;;20.14;100.00;93373.44;5090044;28;20051;-74
2023/07/18 04:18:26;;;;;;;13.45;9.15;;;;;;;20.23;100.00;93376.28;5088494;28;20144;-74
2023/07/18 04:21:00;;;;;;;11.07;8.05;;;;;;;20.28;100.00;93381.50;5094452;28;20047;-74
2023/07/18 04:23:27;;;;;;;13.55;8.23;;;;;;;20.31;100.00;93367.13;5092972;28;20048;-74
2023/07/18 04:25:58;;;;;;;11.68;8.38;;;;;;;20.40;100.00;93368.16;5088468;28;20048;-74
2023/07/18 04:28:27;;;;;;;13.07;8.18;;;;;;;20.47;100.00;93356.66;5083362;28;20040;-74
2023/07/18 04:30:55;;;;;;;11.38;8.77;;;;;;;20.59;100.00;93369.38;5095057;28;20077;-74
2023/07/18 04:33:22;;;;;;;15.18;9.27;;;;;;;20.66;100.00;93367.25;5084292;28;20494;-74
2023/07/18 04:35:48;;;;;;;17.92;9.02;;;;;;;20.77;100.00;93365.38;5088429;28;20044;-75
2023/07/18 04:38:15;;;;;;;13.98;9.73;;;;;;;20.86;100.00;93371.63;5092010;28;20113;-74
2023/07/18 04:40:42;;;;;;;17.70;9.13;;;;;;;20.95;100.00;93374.44;5100161;28;20047;-74
2023/07/18 04:43:09;;;;;;;12.90;8.90;;;;;;;20.98;100.00;93366.06;5089508;28;20044;-74
2023/07/18 04:45:42;;;;;;;13.65;9.15;;;;;;;20.92;100.00;93341.81;5102705;28;20044;-75
2023/07/18 04:48:11;;;;;;;14.77;9.68;;;;;;;21.11;100.00;93369.91;5106127;28;20100;-74
2023/07/18 04:50:38;;;;;;;15.80;8.93;;;;;;;21.29;100.00;93378.16;5095588;28;20040;-74
2023/07/18 04:53:05;;;;;;;14.48;8.75;;;;;;;21.40;100.00;93371.78;5094969;28;20056;-74
2023/07/18 04:55:32;;;;;;;14.65;9.68;;;;;;;21.51;100.00;93379.56;5088964;28;20044;-74
2023/07/18 04:57:58;;;;;;;12.10;8.60;;;;;;;21.59;100.00;93366.69;5087126;28;20048;-73
2023/07/18 05:00:25;;;;;;;12.10;8.68;;;;;;;21.72;100.00;93364.50;5088485;28;20132;-74
2023/07/18 05:02:52;;;;;;;14.50;9.60;;;;;;;21.82;100.00;93363.63;5083009;28;20067;-75
2023/07/18 05:05:20;;;;;;;12.88;9.15;;;;;;;21.83;100.00;93354.72;5099348;28;20044;-74
2023/07/18 05:07:47;;;;;;;17.65;10.60;;;;;;;21.99;100.00;93371.81;5105399;28;20572;-74
2023/07/18 05:10:13;;;;;;;17.20;11.05;;;;;;;22.07;100.00;93367.06;5107074;28;20044;-73
2023/07/18 05:12:40;;;;;;;16.80;10.60;;;;;;;22.00;100.00;93336.75;5090997;28;20109;-74
2023/07/18 05:15:09;;;;;;;13.10;9.30;;;;;;;22.26;100.00;93372.34;5107135;28;20047;-74
2023/07/18 05:17:36;;;;;;;13.77;9.02;;;;;;;22.33;100.00;93371.97;5110010;28;20077;-74
2023/07/18 05:20:03;;;;;;;17.25;9.13;;;;;;;22.42;100.00;93367.69;5098530;28;20052;-74
2023/07/18 05:22:31;;;;;;;23.20;9.15;;;;;;;22.56;100.00;93357.34;5091925;28;20048;-74
2023/07/18 05:24:58;;;;;;;15.20;8.85;;;;;;;22.65;100.00;93362.75;5104363;28;20044;-74
2023/07/18 05:27:25;;;;;;;16.50;9.50;;;;;;;22.75;100.00;93365.22;5082585;28;20048;-73
2023/07/18 05:29:52;;;;;;;13.38;9.35;;;;;;;22.85;99.29;93366.16;5090311;28;20125;-74
2023/07/18 05:32:18;;;;;;;13.02;9.25;;;;;;;23.00;97.55;93365.16;5091079;28;20044;-74
2023/07/18 05:34:45;;;;;;;11.75;8.75;;;;;;;22.99;97.94;93338.19;5084853;28;20052;-74
2023/07/18 05:37:12;;;;;;;14.82;9.57;;;;;;;23.34;96.86;93369.41;5106992;28;20088;-74
2023/07/18 05:39:40;;;;;;;13.45;8.75;;;;;;;23.48;95.61;93375.47;5107750;28;21164;-74
2023/07/18 05:42:06;;;;;;;15.25;8.90;;;;;;;23.61;94.67;93373.19;5101184;28;20051;-74
2023/07/18 05:44:33;;;;;;;12.13;8.07;;;;;;;23.56;94.39;93337.31;5099111;28;20101;-74
2023/07/18 05:47:01;;;;;;;13.70;8.45;;;;;;;24.00;94.73;93368.59;5103142;28;20195;-74
2023/07/18 05:49:27;;;;;;;12.73;9.63;;;;;;;24.06;94.88;93345.66;5093315;28;20043;-74
2023/07/18 05:51:54;;;;;;;12.23;8.63;;;;;;;24.33;91.62;93346.75;5103138;28;20097;-74
2023/07/18 05:54:22;;;;;;;14.23;9.20;;;;;;;24.65;95.12;93371.31;5094802;28;20060;-74
2023/07/18 05:56:50;;;;;;;13.98;8.98;;;;;;;24.87;93.35;93367.22;5088614;28;20856;-74
2023/07/18 05:59:17;;;;;;;12.07;8.63;;;;;;;25.14;91.58;93373.47;5098006;28;20152;-74
2023/07/18 06:01:44;;;;;;;16.85;10.25;;;;;;;25.42;90.59;93371.53;5090599;28;20048;-75
2023/07/18 06:04:10;;;;;;;15.45;9.07;;;;;;;25.67;88.36;93373.84;5089441;28;20051;-74
2023/07/18 06:06:38;;;;;;;20.45;14.18;;;;;;;25.96;85.85;93367.38;5094825;28;20105;-74
2023/07/18 06:09:05;;;;;;;16.65;10.40;;;;;;;26.03;85.72;93362.44;5090422;28;20186;-74
2023/07/18 06:11:32;;;;;;;16.20;9.68;;;;;;;26.22;83.10;93362.22;5089961;28;20145;-74
2023/07/18 06:14:00;;;;;;;15.65;10.60;;;;;;;26.61;82.00;93367.75;5088603;28;20056;-74
2023/07/18 06:16:27;;;;;;;16.38;9.38;;;;;;;26.83;79.45;93381.13;5108481;28;20485;-74
2023/07/18 06:18:54;;;;;;;16.13;9.55;;;;;;;26.97;77.78;93376.50;5100059;27;20101;-74
2023/07/18 06:21:23;;;;;;;19.13;9.55;;;;;;;27.17;75.58;93361.94;5095964;28;20043;-74
2023/07/18 06:23:50;;;;;;;18.02;10.43;;;;;;;27.46;77.11;93368.41;5105372;28;20062;-74
2023/07/18 06:26:17;;;;;;;19.38;10.63;;;;;;;27.70;76.00;93376.97;5095019;28;20048;-74
2023/07/18 06:28:43;;;;;;;18.02;10.77;;;;;;;27.85;74.05;93370.41;5090132;28;20052;-74
2023/07/18 06:31:12;;;;;;;22.80;11.30;;;;;;;27.47;76.66;93374.47;5090011;28;20040;-74
2023/07/18 06:33:38;;;;;;;21.45;10.98;;;;;;;27.53;76.28;93383.03;5091022;28;20667;-74
2023/07/18 06:36:05;;;;;;;18.90;10.60;;;;;;;27.41;78.07;93383.66;5087643;28;20047;-74
2023/07/18 06:38:32;;;;;;;24.98;10.65;;;;;;;27.68;77.16;93390.47;5099055;28;20508;-74
2023/07/18 06:40:59;;;;;;;21.80;10.98;;;;;;;28.00;77.24;93382.31;5106982;28;20459;-74
2023/07/18 06:43:27;;;;;;;31.58;13.13;;;;;;;27.71;77.86;93366.09;5099169;28;20540;-74
2023/07/18 06:45:54;;;;;;;41.75;14.05;;;;;;;27.79;76.99;93371.66;5095167;28;20488;-74
2023/07/18 06:48:22;;;;;;;43.10;15.30;;;;;;;27.88;78.21;93386.41;5089238;28;20109;-74
2023/07/18 06:50:51;;;;;;;42.13;14.52;;;;;;;28.29;75.74;93378.22;5089070;28;20497;-74
2023/07/18 06:53:19;;;;;;;44.13;15.45;;;;;;;28.68;71.82;93375.50;5085392;28;20500;-74
2023/07/18 06:55:46;;;;;;;42.45;13.77;;;;;;;29.03;72.88;93380.63;5102439;28;20040;-74
2023/07/18 06:58:13;;;;;;;32.08;13.82;;;;;;;29.52;70.02;93378.53;5106228;28;20463;-74
2023/07/18 07:00:40;;;;;;;22.98;11.75;;;;;;;29.90;67.57;93382.81;5094340;28;20055;-74
2023/07/18 07:03:08;;;;;;;28.50;11.68;;;;;;;29.95;64.53;93374.66;5090324;28;20176;-74
2023/07/18 07:05:38;;;;;;;21.85;9.82;;;;;;;29.81;66.07;93377.59;5101892;28;20134;-74
2023/07/18 07:08:08;;;;;;;18.80;11.25;;;;;;;30.29;66.75;93379.13;5092210;28;20086;-74
2023/07/18 07:10:35;;;;;;;22.00;11.57;;;;;;;30.54;63.38;93382.53;5101247;28;20051;-74
2023/07/18 07:13:02;;;;;;;24.73;11.73;;;;;;;30.88;64.31;93377.13;5105709;28;20089;-74
2023/07/18 07:15:29;;;;;;;26.48;11.25;;;;;;;31.19;63.86;93381.06;5092068;28;20044;-74
2023/07/18 07:17:55;;;;;;;26.27;10.25;;;;;;;31.50;61.97;93392.91;5095527;28;20526;-74
2023/07/18 07:20:24;;;;;;;25.13;11.70;;;;;;;31.70;62.32;93387.72;5091697;28;20048;-74
2023/07/18 07:22:53;;;;;;;17.00;9.63;;;;;;;31.78;61.49;93378.03;5098174;28;20429;-74
2023/07/18 07:25:20;;;;;;;15.48;9.18;;;;;;;31.91;58.36;93386.75;5095467;28;20058;-74
2023/07/18 07:27:47;;;;;;;22.65;10.63;;;;;;;31.55;59.85;93387.34;5089007;28;20101;-74
2023/07/18 07:30:15;;;;;;;18.38;9.77;;;;;;;30.90;63.22;93388.16;5091376;28;20472;-74
2023/07/18 07:32:43;;;;;;;17.08;9.77;;;;;;;30.89;62.98;93383.97;5102177;28;20089;-74
2023/07/18 07:35:10;;;;;;;22.25;9.93;;;;;;;31.27;63.52;93379.34;5091296;28;20049;-74
2023/07/18 07:37:40;;;;;;;16.88;10.02;;;;;;;31.60;63.69;93373.03;5095126;28;20505;-74
2023/07/18 07:40:11;;;;;;;13.82;8.65;;;;;;;31.49;61.21;93386.03;5088918;28;20087;-74
2023/07/18 07:42:38;;;;;;;16.05;9.43;;;;;;;31.01;63.10;93376.00;5087448;28;20044;-74
2023/07/18 07:45:06;;;;;;;16.88;9.27;;;;;;;31.04;64.35;93385.16;5087235;28;20044;-74
2023/07/18 07:47:33;;;;;;;15.88;8.93;;;;;;;31.22;63.90;93382.22;5091437;28;20062;-74
2023/07/18 07:50:01;;;;;;;15.77;9.23;;;;;;;31.27;64.35;93382.78;5089528;28;20060;-74
2023/07/18 07:52:28;;;;;;;15.73;9.50;;;;;;;31.31;63.08;93383.69;5089406;28;20531;-74
2023/07/18 07:54:54;;;;;;;13.48;8.38;;;;;;;31.53;63.07;93371.00;5088383;28;20048;-74
2023/07/18 07:57:23;;;;;;;14.35;8.82;;;;;;;31.96;63.12;93375.88;5095926;28;20047;-74
2023/07/18 07:59:50;;;;;;;14.93;8.63;;;;;;;32.25;61.92;93377.34;5095955;28;20043;-74
2023/07/18 08:02:17;;;;;;;13.63;9.23;;;;;;;32.58;60.02;93369.38;5091884;28;20505;-74
2023/07/18 08:04:44;;;;;;;12.05;8.63;;;;;;;32.74;59.70;93369.31;5088600;28;20051;-74
2023/07/18 08:07:11;;;;;;;12.68;8.57;;;;;;;32.34;60.16;93371.84;5097043;28;20052;-74
2023/07/18 08:09:38;;;;;;;11.27;8.15;;;;;;;32.45;59.69;93372.13;5094721;28;20036;-74
2023/07/18 08:12:05;;;;;;;13.95;8.52;;;;;;;32.12;60.79;93373.22;5095210;28;20048;-74
2023/07/18 08:14:34;;;;;;;12.02;8.13;;;;;;;32.25;58.93;93377.34;5089822;28;20075;-74
2023/07/18 08:17:03;;;;;;;9.10;6.95;;;;;;;31.22;62.38;93379.56;5087412;28;20102;-73
2023/07/18 08:19:31;;;;;;;11.38;8.13;;;;;;;30.58;66.00;93380.78;5093065;28;20050;-73
2023/07/18 08:21:58;;;;;;;10.15;8.13;;;;;;;30.75;66.78;93379.03;5093617;28;20079;-73
2023/07/18 08:24:25;;;;;;;11.35;8.15;;;;;;;30.84;68.77;93368.31;5088516;28;20068;-73
2023/07/18 08:26:52;;;;;;;10.18;7.95;;;;;;;30.71;64.90;93378.94;5087238;28;20578;-73
2023/07/18 08:29:19;;;;;;;8.90;7.18;;;;;;;30.84;63.68;93371.72;5090956;28;20048;-74
2023/07/18 08:31:48;;;;;;;10.07;7.30;;;;;;;30.20;68.07;93379.25;5084948;28;20043;-73
2023/07/18 08:34:16;;;;;;;11.90;8.10;;;;;;;30.71;67.07;93367.53;5090961;28;20059;-74
2023/07/18 08:36:42;;;;;;;9.65;7.50;;;;;;;30.71;66.96;93380.78;5087911;28;20055;-73
2023/07/18 08:39:09;;;;;;;10.85;8.27;;;;;;;30.90;64.97;93370.38;5088785;28;20440;-74
2023/07/18 08:41:36;;;;;;;11.23;7.72;;;;;;;31.13;66.29;93380.50;5096761;28;20089;-74
2023/07/18 08:44:03;;;;;;;12.70;7.20;;;;;;;31.66;65.93;93376.25;5101545;28;20545;-74
2023/07/18 08:46:29;;;;;;;9.43;8.27;;;;;;;32.10;63.22;93372.78;5105056;28;20489;-74
2023/07/18 08:48:58;;;;;;;12.65;7.80;;;;;;;32.47;61.35;93367.22;5102265;27;20097;-74
2023/07/18 08:51:25;;;;;;;9.75;8.07;;;;;;;32.64;60.47;93375.94;5100312;28;20093;-74
2023/07/18 08:53:52;;;;;;;11.63;8.57;;;;;;;32.44;60.69;93365.25;5106901;27;20104;-74
2023/07/18 08:56:19;;;;;;;10.82;8.88;;;;;;;32.77;60.38;93368.63;5106679;28;20055;-74
2023/07/18 08:58:45;;;;;;;10.05;8.80;;;;;;;32.98;59.83;93372.88;5098474;27;20051;-74
2023/07/18 09:01:12;;;;;;;11.30;8.65;;;;;;;32.73;61.55;93365.91;5094841;28;20550;-74
2023/07/18 09:03:39;;;;;;;12.02;8.55;;;;;;;32.35;60.75;93367.31;5101370;28;20048;-74
2023/07/18 09:06:18;;;;;;;11.50;9.43;;;;;;;32.58;60.59;93369.38;5087833;28;20519;-74
2023/07/18 09:08:45;;;;;;;15.02;10.05;;;;;;;32.52;59.63;93361.66;5108764;28;20051;-74
2023/07/18 09:11:14;;;;;;;12.32;9.73;;;;;;;31.07;61.18;93365.94;5101428;27;20427;-73
2023/07/18 09:13:42;;;;;;;14.35;9.45;;;;;;;30.60;65.19;93370.63;5095342;27;20048;-74
2023/07/18 09:16:13;;;;;;;12.88;9.50;;;;;;;30.24;67.17;93374.84;5095362;28;20558;-73
2023/07/18 09:18:44;;;;;;;12.27;9.95;;;;;;;30.16;69.77;93371.19;5097286;28;20048;-74
2023/07/18 09:21:12;;;;;;;14.40;9.73;;;;;;;30.52;68.90;93372.31;5093220;28;20505;-74
2023/07/18 09:23:43;;;;;;;13.05;9.50;;;;;;;30.82;68.81;93365.97;5100791;27;20066;-73
2023/07/18 09:26:11;;;;;;;12.10;9.68;;;;;;;31.01;66.08;93361.97;5093807;28;20390;-73
2023/07/18 09:28:38;;;;;;;11.43;8.65;;;;;;;31.09;66.51;93362.94;5094071;28;20120;-73
2023/07/18 09:31:16;;;;;;;14.32;9.43;;;;;;;30.73;66.12;93360.03;5095636;28;20072;-73
2023/07/18 09:33:43;;;;;;;10.07;8.68;;;;;;;30.57;68.07;93363.34;5097320;28;20424;-73
2023/07/18 09:36:17;;;;;;;10.35;9.07;;;;;;;30.48;68.79;93357.38;5095804;28;20052;-73
2023/07/18 09:38:46;;;;;;;11.55;9.35;;;;;;;30.29;69.14;93371.19;5094624;28;20852;-73
2023/07/18 09:41:13;;;;;;;13.10;10.10;;;;;;;30.45;65.84;93361.47;5095035;28;20084;-73
2023/07/18 09:43:42;;;;;;;10.80;8.93;;;;;;;30.74;67.76;93361.59;5093209;28;20104;-73
2023/07/18 09:46:11;;;;;;;11.57;9.13;;;;;;;30.84;67.13;93310.75;5106847;27;20139;-74
2023/07/18 09:48:39;;;;;;;12.55;9.52;;;;;;;31.55;63.99;93357.34;5097270;27;20055;-74
2023/07/18 09:51:09;;;;;;;12.00;9.38;;;;;;;31.67;61.88;93359.19;5102235;28;20060;-73
2023/07/18 09:53:40;;;;;;;10.77;8.52;;;;;;;31.45;65.46;93359.41;5097421;28;20051;-73
2023/07/18 09:56:10;;;;;;;11.55;8.65;;;;;;;31.03;65.27;93355.22;5093211;28;20269;-73
2023/07/18 09:58:40;;;;;;;11.55;9.27;;;;;;;31.68;65.81;93348.22;5088664;28;20051;-73
2023/07/18 10:01:11;;;;;;;11.90;9.02;;;;;;;32.09;62.64;93347.34;5090945;28;20052;-74
2023/07/18 10:03:39;;;;;;;12.65;8.75;;;;;;;32.28;62.59;93349.31;5089197;28;20134;-73
2023/07/18 10:06:10;;;;;;;10.90;8.40;;;;;;;31.45;63.00;93332.88;5090881;28;20052;-73
2023/07/18 10:08:40;;;;;;;12.98;8.75;;;;;;;31.86;60.91;93348.72;5097277;28;20048;-73
2023/07/18 10:11:08;;;;;;;10.82;8.25;;;;;;;31.35;61.89;93337.88;5106308;28;20044;-73
2023/07/18 10:13:41;;;;;;;11.10;7.82;;;;;;;31.25;62.28;93350.50;5103771;28;20048;-73
2023/07/18 10:16:19;;;;;;;11.73;7.72;;;;;;;30.97;58.69;93350.47;5096287;28;20047;-73
2023/07/18 10:18:46;;;;;;;11.25;8.27;;;;;;;31.43;57.59;93348.34;5102623;28;20056;-73
2023/07/18 10:21:14;;;;;;;8.20;6.10;;;;;;;31.30;57.56;93344.22;5095603;28;20469;-74
2023/07/18 10:23:43;;;;;;;13.05;6.80;;;;;;;31.14;58.55;93344.16;5090634;28;20054;-73
2023/07/18 10:26:10;;;;;;;7.90;6.85;;;;;;;31.52;57.84;93337.56;5097569;28;20043;-74
2023/07/18 10:28:48;;;;;;;9.40;7.13;;;;;;;31.63;58.77;93343.16;5091519;28;20451;-73
2023/07/18 10:31:34;;;;;;;9.15;6.70;;;;;;;31.78;55.41;93333.69;5093645;28;20083;-74
2023/07/18 10:34:09;;;;;;;9.50;6.70;;;;;;;31.44;59.63;93333.97;5089556;28;20048;-74
2023/07/18 10:36:36;;;;;;;9.25;7.00;;;;;;;31.71;57.79;93339.56;5091597;28;20416;-73
2023/07/18 10:39:14;;;;;;;10.52;6.97;;;;;;;32.06;56.87;93338.16;5090032;28;20048;-74
2023/07/18 10:41:44;;;;;;;9.25;6.78;;;;;;;31.42;55.79;93336.19;5088071;28;20055;-73
2023/07/18 10:44:12;;;;;;;10.27;6.35;;;;;;;31.78;55.57;93340.84;5090946;28;20055;-74
2023/07/18 10:46:40;;;;;;;8.77;5.97;;;;;;;31.55;56.51;93336.91;5090870;28;20102;-77
2023/07/18 10:49:07;;;;;;;8.32;6.15;;;;;;;31.25;55.76;93321.31;5087759;28;20097;-78
2023/07/18 10:51:35;;;;;;;7.35;5.47;;;;;;;31.22;57.28;93316.69;5092827;28;20040;-76
2023/07/18 10:54:02;;;;;;;9.70;5.95;;;;;;;31.59;53.52;93335.13;5091912;28;20040;-77
2023/07/18 10:56:30;;;;;;;9.35;5.75;;;;;;;32.08;54.84;93335.19;5092324;28;20134;-78
2023/07/18 10:58:57;;;;;;;7.90;5.72;;;;;;;32.16;54.09;93315.63;5091931;28;20051;-78
2023/07/18 11:01:28;;;;;;;7.53;5.57;;;;;;;32.01;54.54;93333.09;5089768;28;20051;-78
2023/07/18 11:03:54;;;;;;;8.48;5.13;;;;;;;31.83;52.99;93332.63;5104695;28;20044;-78
2023/07/18 11:06:22;;;;;;;6.47;4.60;;;;;;;31.79;51.31;93324.59;5090350;28;20569;-78
2023/07/18 11:08:49;;;;;;;7.15;5.60;;;;;;;32.30;54.14;93330.34;5090168;28;20495;-78
2023/07/18 11:11:18;;;;;;;8.98;4.85;;;;;;;32.31;49.61;93323.91;5095418;28;20102;-77
2023/07/18 11:13:46;;;;;;;6.35;4.55;;;;;;;32.15;54.63;93329.25;5090157;28;20055;-78
2023/07/18 11:16:15;;;;;;;7.10;5.05;;;;;;;31.86;55.49;93316.06;5092339;28;20098;-77
2023/07/18 11:18:45;;;;;;;5.88;4.85;;;;;;;32.33;53.48;93332.31;5091444;28;20082;-77
2023/07/18 11:21:14;;;;;;;7.53;5.15;;;;;;;31.75;54.43;93331.72;5089299;28;20052;-78
2023/07/18 11:23:43;;;;;;;8.00;4.88;;;;;;;31.36;51.52;93315.53;5088749;28;20093;-76